Time;durP1;ratioP1;P1;durP2;ratioP2;P2;SDS_P1;SDS_P2;PMS_P1;PMS_P2;Temp;Humidity;BMP_temperature;BMP_pressure;BME280_temperature;BME280_humidity;BME280_pressure;Samples;Min_cycle;Max_cycle;Signal;HPM_P1;HPM_P2
2021/08/01 00:00:59;;;;;;;8.65;4.03;;;;;;;18.53;100.00;100045.72;5034505;28;20489;-77
2021/08/01 00:03:24;;;;;;;7.80;4.00;;;;;;;18.35;100.00;100034.41;5051549;28;20033;-76
2021/08/01 00:05:50;;;;;;;6.20;3.75;;;;;;;18.49;100.00;100036.84;5042277;28;20037;-75
2021/08/01 00:08:15;;;;;;;8.88;4.00;;;;;;;18.44;100.00;100038.13;5031617;28;20036;-75
2021/08/01 00:10:41;;;;;;;5.63;3.53;;;;;;;18.48;100.00;100036.09;5031435;28;20047;-76
2021/08/01 00:13:06;;;;;;;5.57;3.40;;;;;;;18.35;100.00;100032.44;5051770;28;20045;-76
2021/08/01 00:15:32;;;;;;;5.50;3.38;;;;;;;18.35;100.00;100026.22;5051056;28;20413;-76
2021/08/01 00:17:57;;;;;;;4.47;3.55;;;;;;;18.29;100.00;100025.94;5051826;28;20037;-76
2021/08/01 00:20:23;;;;;;;6.10;3.65;;;;;;;18.42;100.00;100026.06;5050520;28;20504;-75
2021/08/01 00:22:49;;;;;;;5.47;3.40;;;;;;;18.45;100.00;100023.28;5052070;28;20455;-76
2021/08/01 00:25:14;;;;;;;7.80;3.45;;;;;;;18.37;100.00;100024.59;5049162;28;20058;-76
2021/08/01 00:27:40;;;;;;;5.45;3.20;;;;;;;18.26;100.00;100034.97;5051609;28;20036;-76
2021/08/01 00:30:09;;;;;;;5.53;3.45;;;;;;;18.38;100.00;100028.88;5031882;28;20036;-75
2021/08/01 00:32:34;;;;;;;8.30;3.75;;;;;;;18.41;100.00;100035.44;5040997;28;20133;-76
2021/08/01 00:35:00;;;;;;;6.68;3.58;;;;;;;18.41;100.00;100024.50;5051027;28;20525;-76
2021/08/01 00:37:26;;;;;;;8.88;4.15;;;;;;;18.29;100.00;100036.09;5033646;28;20017;-76
2021/08/01 00:39:51;;;;;;;8.10;4.82;;;;;;;18.41;100.00;100035.44;5033585;28;20071;-76
2021/08/01 00:42:18;;;;;;;6.38;4.28;;;;;;;18.37;100.00;100048.41;5017698;28;20017;-75
2021/08/01 00:44:44;;;;;;;6.25;4.50;;;;;;;18.18;100.00;100049.94;5031027;28;20079;-76
2021/08/01 00:47:10;;;;;;;5.82;4.25;;;;;;;18.09;100.00;100046.25;5033121;28;20112;-75
2021/08/01 00:49:36;;;;;;;8.20;4.50;;;;;;;18.19;100.00;100046.03;5047538;28;20079;-75
2021/08/01 00:52:04;;;;;;;9.52;4.75;;;;;;;18.21;100.00;100045.59;5033110;28;20033;-76
2021/08/01 00:54:34;;;;;;;5.43;3.72;;;;;;;18.35;100.00;100034.41;5016630;28;20033;-76
2021/08/01 00:57:06;;;;;;;9.23;4.20;;;;;;;18.26;100.00;100031.47;5033399;28;20637;-77
2021/08/01 00:59:38;;;;;;;7.80;4.30;;;;;;;18.15;100.00;100036.38;5031135;28;20039;-76
2021/08/01 01:02:17;;;;;;;5.70;3.90;;;;;;;18.25;100.00;100036.19;5033158;28;20087;-76
2021/08/01 01:04:48;;;;;;;5.93;3.88;;;;;;;18.16;100.00;100035.19;5047408;28;20040;-76
2021/08/01 01:07:24;;;;;;;6.43;3.42;;;;;;;18.15;100.00;100020.03;5014141;28;20033;-76
2021/08/01 01:10:07;;;;;;;7.88;3.38;;;;;;;18.19;100.00;100013.31;5050794;28;20505;-76
2021/08/01 01:13:12;;;;;;;5.30;3.45;;;;;;;18.15;100.00;100007.19;5033172;28;20072;-77
2021/08/01 01:15:45;;;;;;;4.97;3.45;;;;;;;18.07;100.00;100013.97;5041527;28;20124;-77
2021/08/01 01:18:16;;;;;;;6.60;3.80;;;;;;;18.23;100.00;100010.53;5047053;28;20037;-76
2021/08/01 01:21:01;;;;;;;4.93;3.40;;;;;;;18.23;100.00;100008.56;5014860;28;20059;-76
2021/08/01 01:23:39;;;;;;;5.80;3.30;;;;;;;18.25;100.00;100014.38;5026749;28;20033;-76
2021/08/01 01:26:46;;;;;;;5.65;3.33;;;;;;;18.11;100.00;100011.94;5031624;28;20644;-75
2021/08/01 01:29:22;;;;;;;7.15;3.17;;;;;;;18.04;100.00;100012.06;5023642;28;20041;-77
2021/08/01 01:31:47;;;;;;;9.18;3.38;;;;;;;18.13;100.00;100016.97;5031606;28;20044;-76
2021/08/01 01:34:22;;;;;;;5.28;3.60;;;;;;;18.19;100.00;100013.31;5050598;28;20044;-76
2021/08/01 01:36:51;;;;;;;6.88;3.58;;;;;;;18.19;100.00;100018.00;5032594;28;20036;-76
2021/08/01 01:39:19;;;;;;;9.40;3.70;;;;;;;17.94;100.00;100019.25;5033044;28;20056;-75
2021/08/01 01:42:11;;;;;;;9.23;3.42;;;;;;;18.17;100.00;100021.16;5008761;28;20033;-77
2021/08/01 01:44:43;;;;;;;5.05;3.25;;;;;;;18.12;100.00;100024.34;5049950;28;20041;-77
2021/08/01 01:47:09;;;;;;;9.38;3.80;;;;;;;18.05;100.00;100024.50;5045889;28;20441;-76
2021/08/01 01:49:37;;;;;;;5.18;3.40;;;;;;;18.08;100.00;100026.38;5037601;28;20096;-76
2021/08/01 01:52:04;;;;;;;6.70;3.60;;;;;;;17.99;100.00;100035.13;5032874;28;20021;-77
2021/08/01 01:54:31;;;;;;;5.80;3.47;;;;;;;17.94;100.00;100029.41;5022730;28;20026;-75
2021/08/01 01:56:58;;;;;;;5.15;3.50;;;;;;;18.02;100.00;100017.94;5031913;28;20040;-76
2021/08/01 01:59:30;;;;;;;5.45;3.33;;;;;;;18.10;100.00;100015.09;5032867;28;20615;-77
2021/08/01 02:01:55;;;;;;;6.65;2.92;;;;;;;18.13;100.00;100025.13;5033661;28;20558;-75
2021/08/01 02:04:21;;;;;;;6.13;3.70;;;;;;;18.10;100.00;100015.09;5037548;28;20029;-76
2021/08/01 02:07:05;;;;;;;8.93;3.85;;;;;;;18.13;100.00;100019.69;5049931;28;20502;-76
2021/08/01 02:09:46;;;;;;;5.35;3.80;;;;;;;18.20;100.00;100017.56;5050160;28;20032;-76
2021/08/01 02:12:31;;;;;;;7.18;3.63;;;;;;;18.19;100.00;100015.28;5023718;28;20041;-76
2021/08/01 02:15:16;;;;;;;7.90;4.10;;;;;;;18.37;100.00;100010.22;5035018;28;20116;-77
2021/08/01 02:17:49;;;;;;;6.55;3.53;;;;;;;18.11;100.00;100008.44;5031865;28;20037;-77
2021/08/01 02:20:17;;;;;;;6.78;3.85;;;;;;;18.15;100.00;100000.94;5031418;28;20037;-78
2021/08/01 02:23:17;;;;;;;8.27;3.65;;;;;;;18.00;100.00;100011.38;5034734;28;20080;-77
2021/08/01 02:25:43;;;;;;;5.93;3.80;;;;;;;18.09;100.00;100008.09;5015440;28;20033;-76
2021/08/01 02:28:09;;;;;;;10.52;4.05;;;;;;;18.15;100.00;100004.44;5032276;28;20037;-77
2021/08/01 02:30:37;;;;;;;6.20;3.83;;;;;;;18.13;100.00;100003.31;5029443;28;20099;-76
2021/08/01 02:33:06;;;;;;;8.43;4.22;;;;;;;18.15;100.00;99998.22;5048820;28;20036;-76
2021/08/01 02:35:32;;;;;;;10.00;4.47;;;;;;;18.17;100.00;100002.06;5015413;28;20032;-76
2021/08/01 02:38:00;;;;;;;9.57;4.80;;;;;;;18.24;100.00;100001.13;5048240;28;20463;-76
2021/08/01 02:40:31;;;;;;;8.68;4.22;;;;;;;18.24;100.00;99998.41;5023757;28;20033;-77
2021/08/01 02:43:01;;;;;;;15.52;4.20;;;;;;;18.22;100.00;99996.09;5025552;28;20529;-77
2021/08/01 02:45:27;;;;;;;6.97;4.05;;;;;;;18.20;100.00;99995.00;5027204;28;20075;-77
2021/08/01 02:47:54;;;;;;;5.85;4.30;;;;;;;18.11;100.00;99992.84;5031529;28;20568;-77
2021/08/01 02:50:23;;;;;;;10.10;4.53;;;;;;;18.06;100.00;100006.22;5041265;28;20028;-77
2021/08/01 02:52:59;;;;;;;5.05;4.10;;;;;;;18.08;100.00;99995.66;5032602;28;20037;-76
2021/08/01 02:55:29;;;;;;;6.78;4.35;;;;;;;17.88;100.00;99988.28;5027981;28;20615;-75
2021/08/01 02:57:56;;;;;;;6.00;4.05;;;;;;;17.98;100.00;100005.59;5016115;28;20025;-76
2021/08/01 03:00:23;;;;;;;5.53;3.92;;;;;;;18.11;100.00;99998.31;5048833;28;20033;-73
2021/08/01 03:02:50;;;;;;;8.35;4.70;;;;;;;18.15;100.00;100009.13;5073289;23;20066;-74
2021/08/01 03:05:20;;;;;;;12.15;4.38;;;;;;;18.11;100.00;100006.47;5069106;28;20036;-73
2021/08/01 03:07:48;;;;;;;8.27;4.70;;;;;;;18.10;100.00;100012.34;5073747;28;20056;-73
2021/08/01 03:10:16;;;;;;;6.85;4.20;;;;;;;18.13;100.00;100009.56;5089206;28;20032;-74
2021/08/01 03:12:47;;;;;;;9.60;4.32;;;;;;;18.32;100.00;100002.53;5064826;28;20028;-74
2021/08/01 03:15:17;;;;;;;6.57;4.05;;;;;;;17.99;100.00;99997.00;5070619;28;20386;-74
2021/08/01 03:17:43;;;;;;;6.25;3.65;;;;;;;18.00;100.00;99995.78;5070446;28;20043;-74
2021/08/01 03:20:11;;;;;;;8.52;3.58;;;;;;;17.96;100.00;99989.63;5074189;28;20121;-74
2021/08/01 03:22:56;;;;;;;11.63;4.22;;;;;;;17.95;100.00;99990.06;5082953;28;20046;-74
2021/08/01 03:25:24;;;;;;;7.22;4.15;;;;;;;18.04;100.00;99998.44;5038762;28;20028;-73
2021/08/01 03:27:50;;;;;;;9.68;4.60;;;;;;;18.14;100.00;99999.44;5060346;28;20407;-74
2021/08/01 03:30:16;;;;;;;11.80;4.50;;;;;;;18.13;100.00;100000.59;5071539;28;20032;-74
2021/08/01 03:32:41;;;;;;;7.40;4.43;;;;;;;18.15;100.00;100003.69;5065434;28;20040;-74
2021/08/01 03:35:07;;;;;;;10.38;5.03;;;;;;;18.04;100.00;100009.34;5086203;28;20069;-73
2021/08/01 03:37:44;;;;;;;6.95;4.60;;;;;;;18.07;100.00;100018.63;5065733;28;20036;-73
2021/08/01 03:40:28;;;;;;;8.73;5.05;;;;;;;17.93;100.00;100028.63;5074952;28;20066;-73
2021/08/01 03:42:54;;;;;;;9.45;5.75;;;;;;;17.96;100.00;100025.06;5061365;28;20028;-73
2021/08/01 03:45:19;;;;;;;9.18;5.18;;;;;;;17.94;100.00;100010.34;5066835;28;20064;-73
2021/08/01 03:47:45;;;;;;;9.35;5.80;;;;;;;17.83;100.00;100020.66;5073919;28;20040;-73
2021/08/01 03:50:10;;;;;;;12.85;5.65;;;;;;;18.01;100.00;100023.81;5077710;28;20599;-73
2021/08/01 03:52:36;;;;;;;12.38;5.80;;;;;;;18.07;100.00;100021.34;5081232;28;20044;-73
2021/08/01 03:55:03;;;;;;;10.35;5.90;;;;;;;18.10;100.00;100018.56;5078006;28;20102;-73
2021/08/01 03:57:28;;;;;;;11.70;5.80;;;;;;;18.12;100.00;100015.44;5063341;28;20445;-73
2021/08/01 03:59:53;;;;;;;15.18;6.93;;;;;;;18.13;100.00;100011.50;5081033;28;20040;-73
2021/08/01 04:02:19;;;;;;;10.25;6.63;;;;;;;18.05;100.00;100013.59;5076845;28;20554;-73
2021/08/01 04:04:44;;;;;;;13.13;6.65;;;;;;;17.98;100.00;100019.22;5059002;28;20021;-73
2021/08/01 04:07:10;;;;;;;12.35;7.18;;;;;;;18.01;100.00;100032.75;5078068;28;20049;-74
2021/08/01 04:09:35;;;;;;;9.90;6.93;;;;;;;18.11;100.00;100035.69;5075740;28;20025;-73
2021/08/01 04:12:01;;;;;;;14.75;6.70;;;;;;;17.95;100.00;100031.72;5069055;28;20025;-73
2021/08/01 04:14:30;;;;;;;11.20;6.55;;;;;;;17.99;100.00;100026.19;5070632;28;20028;-74
2021/08/01 04:16:55;;;;;;;12.77;5.80;;;;;;;17.87;100.00;100037.72;5072437;28;20224;-73
2021/08/01 04:19:21;;;;;;;11.55;5.90;;;;;;;17.85;100.00;100043.59;5088573;28;20047;-73
2021/08/01 04:21:46;;;;;;;9.35;5.45;;;;;;;17.77;100.00;100036.72;5070038;28;20032;-73
2021/08/01 04:24:12;;;;;;;7.35;5.32;;;;;;;17.88;100.00;100042.00;5087809;28;20032;-73
2021/08/01 04:26:38;;;;;;;11.63;5.22;;;;;;;17.82;100.00;100049.09;5073092;28;20087;-74
2021/08/01 04:29:05;;;;;;;7.63;5.07;;;;;;;17.92;100.00;100045.41;5074686;28;20032;-73
2021/08/01 04:31:31;;;;;;;11.00;5.68;;;;;;;17.91;100.00;100052.03;5088301;28;20119;-73
2021/08/01 04:33:56;;;;;;;9.02;5.47;;;;;;;17.96;100.00;100054.28;5080670;28;20165;-73
2021/08/01 04:36:22;;;;;;;10.73;6.50;;;;;;;17.82;100.00;100058.06;5084234;28;20040;-74
2021/08/01 04:38:47;;;;;;;12.45;6.35;;;;;;;17.90;100.00;100059.44;5075286;28;20032;-73
2021/08/01 04:41:13;;;;;;;8.70;6.00;;;;;;;17.98;100.00;100058.13;5079303;28;20545;-73
2021/08/01 04:43:38;;;;;;;10.98;6.50;;;;;;;17.96;100.00;100055.03;5088744;28;20032;-73
2021/08/01 04:46:04;;;;;;;9.48;5.93;;;;;;;18.06;100.00;100055.28;5081866;28;20032;-73
2021/08/01 04:48:29;;;;;;;12.00;6.05;;;;;;;18.07;100.00;100060.28;5078858;28;20024;-73
2021/08/01 04:50:55;;;;;;;11.85;6.25;;;;;;;18.10;100.00;100069.59;5064371;28;20115;-73
2021/08/01 04:53:20;;;;;;;8.70;5.80;;;;;;;18.05;100.00;100070.84;5058737;28;20020;-73
2021/08/01 04:55:46;;;;;;;10.85;5.93;;;;;;;18.01;100.00;100075.59;5066069;28;20060;-73
2021/08/01 04:58:14;;;;;;;12.40;6.10;;;;;;;17.97;100.00;100077.63;5080368;28;20073;-73
2021/08/01 05:00:40;;;;;;;11.73;5.68;;;;;;;18.08;100.00;100080.91;5070019;28;20036;-73
2021/08/01 05:03:05;;;;;;;11.20;5.65;;;;;;;18.06;100.00;100079.78;5083460;28;20468;-73
2021/08/01 05:05:40;;;;;;;11.43;5.68;;;;;;;18.18;100.00;100081.88;5056728;28;20036;-73
2021/08/01 05:08:06;;;;;;;8.68;5.55;;;;;;;18.04;100.00;100085.63;5075510;28;20085;-73
2021/08/01 05:10:32;;;;;;;13.07;6.28;;;;;;;18.12;100.00;100089.03;5083078;28;20434;-73
2021/08/01 05:12:58;;;;;;;9.07;5.95;;;;;;;17.97;100.00;100094.75;5059048;28;20062;-73
2021/08/01 05:15:23;;;;;;;10.90;6.05;;;;;;;17.87;100.00;100095.69;5077102;28;20027;-73
2021/08/01 05:17:49;;;;;;;9.32;6.05;;;;;;;17.86;100.00;100093.41;5075741;28;20492;-73
2021/08/01 05:20:15;;;;;;;13.43;6.13;;;;;;;17.99;100.00;100089.63;5077090;28;20538;-73
2021/08/01 05:22:40;;;;;;;9.23;6.37;;;;;;;17.97;100.00;100091.25;5069979;28;20499;-73
2021/08/01 05:25:07;;;;;;;15.73;6.25;;;;;;;18.09;100.00;100089.84;5079586;28;20271;-73
2021/08/01 05:27:32;;;;;;;10.68;6.38;;;;;;;18.04;100.00;100093.81;5088372;28;20066;-73
2021/08/01 05:29:58;;;;;;;12.82;6.68;;;;;;;18.11;100.00;100087.47;5061850;28;20060;-73
2021/08/01 05:32:24;;;;;;;11.00;6.07;;;;;;;18.22;100.00;100093.47;5071082;28;20032;-73
2021/08/01 05:34:49;;;;;;;12.57;6.45;;;;;;;18.20;100.00;100080.28;5054747;28;20032;-73
2021/08/01 05:37:15;;;;;;;13.27;6.32;;;;;;;18.30;100.00;100086.69;5070845;28;20064;-73
2021/08/01 05:39:40;;;;;;;15.50;6.53;;;;;;;18.32;100.00;100089.78;5058967;28;20042;-73
2021/08/01 05:42:06;;;;;;;12.82;5.75;;;;;;;18.36;100.00;100087.75;5078206;28;20387;-73
2021/08/01 05:44:33;;;;;;;9.65;6.43;;;;;;;18.42;100.00;100081.41;5065890;28;20075;-73
2021/08/01 05:46:59;;;;;;;14.23;6.40;;;;;;;18.32;100.00;100085.09;5077858;28;20044;-73
2021/08/01 05:49:24;;;;;;;11.65;7.15;;;;;;;18.27;100.00;100077.41;5064480;28;20069;-73
2021/08/01 05:51:50;;;;;;;17.33;7.10;;;;;;;18.25;100.00;100087.19;5087871;28;20543;-73
2021/08/01 05:54:15;;;;;;;13.52;6.53;;;;;;;18.28;100.00;100081.66;5065870;28;20458;-73
2021/08/01 05:56:40;;;;;;;14.82;7.00;;;;;;;18.22;100.00;100086.06;5081446;28;20079;-73
2021/08/01 05:59:06;;;;;;;12.15;7.15;;;;;;;18.27;100.00;100082.09;5057806;28;20032;-73
2021/08/01 06:01:31;;;;;;;12.55;7.00;;;;;;;18.31;100.00;100088.25;5080520;28;20036;-73
2021/08/01 06:03:57;;;;;;;15.65;6.82;;;;;;;18.38;100.00;100088.88;5086157;28;20414;-73
2021/08/01 06:06:23;;;;;;;13.13;6.97;;;;;;;18.36;100.00;100083.06;5081640;28;20048;-73
2021/08/01 06:08:51;;;;;;;11.90;7.03;;;;;;;18.37;100.00;100089.28;5066539;28;20039;-73
2021/08/01 06:11:19;;;;;;;13.48;7.45;;;;;;;18.29;100.00;100079.72;5074514;28;20074;-73
2021/08/01 06:13:44;;;;;;;16.95;7.18;;;;;;;18.42;100.00;100075.16;5073947;28;20107;-73
2021/08/01 06:16:11;;;;;;;17.70;7.13;;;;;;;18.58;100.00;100067.06;5054564;28;20108;-73
2021/08/01 06:18:37;;;;;;;17.60;6.75;;;;;;;18.69;100.00;100073.81;5058041;28;20458;-73
2021/08/01 06:21:09;;;;;;;11.23;6.72;;;;;;;18.76;100.00;100079.09;5059015;28;20032;-73
2021/08/01 06:23:35;;;;;;;;;;;;;;;18.74;100.00;100080.72;5055203;28;20027;-73
2021/08/01 06:26:01;;;;;;;12.18;6.40;;;;;;;18.74;100.00;100064.34;5079298;28;19920;-73
2021/08/01 06:28:27;;;;;;;11.50;6.80;;;;;;;18.89;100.00;100073.75;5073738;28;20025;-73
2021/08/01 06:30:52;;;;;;;13.38;6.20;;;;;;;18.88;100.00;100075.72;5071565;28;20389;-73
2021/08/01 06:33:18;;;;;;;9.35;6.40;;;;;;;18.91;100.00;100077.56;5072954;28;20032;-73
2021/08/01 06:35:43;;;;;;;11.07;6.15;;;;;;;18.93;100.00;100077.91;5088677;28;20077;-73
2021/08/01 06:38:09;;;;;;;17.20;7.15;;;;;;;18.76;100.00;100081.81;5086781;28;20033;-73
2021/08/01 06:40:34;;;;;;;11.48;5.85;;;;;;;18.61;100.00;100077.88;5062541;28;20028;-73
2021/08/01 06:43:00;;;;;;;10.65;6.40;;;;;;;18.53;100.00;100089.34;5079287;28;20032;-73
2021/08/01 06:45:25;;;;;;;14.18;6.00;;;;;;;18.70;100.00;100085.47;5066325;28;20050;-73
2021/08/01 06:47:50;;;;;;;11.55;6.20;;;;;;;18.71;100.00;100089.75;5087114;28;20050;-73
2021/08/01 06:50:16;;;;;;;14.82;6.32;;;;;;;18.72;100.00;100083.88;5077889;28;20118;-73
2021/08/01 06:52:41;;;;;;;14.05;6.13;;;;;;;18.74;100.00;100092.41;5063246;28;20098;-73
2021/08/01 06:55:07;;;;;;;12.10;6.30;;;;;;;18.82;100.00;100080.13;5073916;28;20042;-74
2021/08/01 06:57:33;;;;;;;11.57;6.40;;;;;;;18.74;100.00;100088.88;5087158;28;20070;-73
2021/08/01 06:59:58;;;;;;;13.55;5.97;;;;;;;18.86;100.00;100096.41;5086229;28;20032;-73
2021/08/01 07:02:24;;;;;;;13.13;6.32;;;;;;;18.93;100.00;100096.25;5078535;28;20043;-73
2021/08/01 07:04:49;;;;;;;15.95;6.45;;;;;;;18.91;100.00;100095.94;5060880;28;20043;-74
2021/08/01 07:07:15;;;;;;;14.57;7.05;;;;;;;18.72;100.00;100102.97;5085434;28;20070;-74
2021/08/01 07:09:40;;;;;;;12.40;6.80;;;;;;;18.95;100.00;100112.22;5084471;28;20029;-74
2021/08/01 07:12:09;;;;;;;15.50;6.18;;;;;;;19.06;100.00;100099.09;5089244;28;20416;-74
2021/08/01 07:14:35;;;;;;;8.65;6.35;;;;;;;19.16;100.00;100101.59;5047936;28;20488;-74
2021/08/01 07:17:01;;;;;;;14.57;7.20;;;;;;;19.09;100.00;100099.00;5086658;28;20422;-74
2021/08/01 07:19:27;;;;;;;11.15;6.65;;;;;;;19.29;100.00;100110.63;5083223;28;20039;-74
2021/08/01 07:21:53;;;;;;;11.27;7.15;;;;;;;19.21;100.00;100113.94;5078260;28;20035;-74
2021/08/01 07:24:19;;;;;;;17.63;7.28;;;;;;;19.14;100.00;100106.72;5064281;28;20032;-74
2021/08/01 07:26:45;;;;;;;12.25;6.88;;;;;;;19.13;100.00;100107.09;5073939;28;20040;-74
2021/08/01 07:29:11;;;;;;;12.50;7.00;;;;;;;19.00;100.00;100104.28;5071353;28;20036;-73
2021/08/01 07:31:36;;;;;;;14.77;7.28;;;;;;;19.05;100.00;100105.75;5074231;28;20062;-73
2021/08/01 07:34:02;;;;;;;14.77;7.13;;;;;;;19.07;100.00;100104.13;5072661;28;20075;-74
2021/08/01 07:36:28;;;;;;;9.93;6.60;;;;;;;19.38;100.00;100110.81;5075045;28;20034;-74
2021/08/01 07:38:53;;;;;;;14.02;6.75;;;;;;;19.23;100.00;100106.88;5079926;28;20067;-74
2021/08/01 07:41:19;;;;;;;10.80;6.30;;;;;;;19.36;100.00;100098.78;5081945;28;20178;-74
2021/08/01 07:43:44;;;;;;;11.20;6.60;;;;;;;19.47;100.00;100102.03;5054265;28;20876;-74
2021/08/01 07:46:10;;;;;;;9.98;6.85;;;;;;;19.42;100.00;100100.56;5068492;28;20048;-73
2021/08/01 07:48:35;;;;;;;13.65;6.43;;;;;;;19.56;100.00;100108.44;5076928;28;20076;-74
2021/08/01 07:51:01;;;;;;;10.80;6.68;;;;;;;19.69;99.54;100111.22;5074228;28;20416;-74
2021/08/01 07:53:27;;;;;;;13.15;7.43;;;;;;;19.74;98.28;100099.78;5071700;28;20103;-73
2021/08/01 07:55:52;;;;;;;9.82;6.65;;;;;;;19.72;99.21;100111.13;5058451;28;20028;-74
2021/08/01 07:58:18;;;;;;;12.88;6.80;;;;;;;19.65;97.58;100105.84;5071731;28;20028;-74
2021/08/01 08:00:44;;;;;;;9.50;6.78;;;;;;;19.85;98.23;100097.53;5072019;28;20420;-74
2021/08/01 08:03:09;;;;;;;11.18;6.80;;;;;;;19.91;97.62;100095.81;5075716;28;20028;-73
2021/08/01 08:05:35;;;;;;;11.73;6.63;;;;;;;20.02;97.79;100096.28;5059482;28;20040;-74
2021/08/01 08:08:00;;;;;;;10.60;7.07;;;;;;;20.19;97.27;100091.56;5074503;28;20020;-74
2021/08/01 08:10:26;;;;;;;12.13;7.10;;;;;;;20.23;96.05;100097.66;5070833;28;20035;-73
2021/08/01 08:12:51;;;;;;;9.68;6.80;;;;;;;20.41;95.94;100095.22;5068181;28;20040;-74
2021/08/01 08:15:17;;;;;;;20.58;6.60;;;;;;;20.68;95.37;100090.09;5054185;28;20044;-74
2021/08/01 08:17:43;;;;;;;8.52;6.70;;;;;;;20.69;93.46;100088.91;5078285;28;20039;-74
2021/08/01 08:20:09;;;;;;;10.70;5.53;;;;;;;20.63;92.48;100085.94;5061217;28;20024;-74
2021/08/01 08:22:35;;;;;;;10.85;5.72;;;;;;;20.82;91.73;100088.91;5051306;28;20029;-74
2021/08/01 08:25:01;;;;;;;9.32;5.20;;;;;;;20.86;91.01;100090.34;5069099;28;20019;-74
2021/08/01 08:27:28;;;;;;;7.75;5.25;;;;;;;20.83;90.25;100082.25;5070094;28;20113;-74
2021/08/01 08:29:53;;;;;;;9.70;5.75;;;;;;;20.88;90.28;100087.94;5053741;28;20481;-75
2021/08/01 08:32:19;;;;;;;10.38;5.68;;;;;;;21.01;90.17;100080.50;5040688;28;20039;-74
2021/08/01 08:34:44;;;;;;;12.20;5.47;;;;;;;21.13;89.59;100084.44;5070366;28;20036;-74
2021/08/01 08:37:10;;;;;;;11.90;5.18;;;;;;;21.21;87.58;100081.03;5072725;28;20040;-74
2021/08/01 08:39:36;;;;;;;11.70;5.40;;;;;;;21.23;86.94;100081.38;5070003;28;20032;-74
2021/08/01 08:42:02;;;;;;;11.88;5.55;;;;;;;21.30;87.76;100089.34;5071461;28;20073;-74
2021/08/01 08:44:27;;;;;;;9.65;5.43;;;;;;;21.37;87.34;100093.81;5056416;28;20040;-74
2021/08/01 08:46:56;;;;;;;12.40;5.60;;;;;;;21.46;87.45;100080.97;5051699;28;20419;-74
2021/08/01 08:49:23;;;;;;;15.25;5.70;;;;;;;21.64;86.68;100085.09;5067718;28;20032;-74
2021/08/01 08:51:52;;;;;;;10.43;5.35;;;;;;;21.75;84.57;100094.50;5070754;28;20028;-73
2021/08/01 08:54:30;;;;;;;11.52;6.00;;;;;;;21.68;84.78;100089.22;5076478;28;20020;-73
2021/08/01 08:56:59;;;;;;;12.23;6.75;;;;;;;21.64;85.16;100093.31;5070187;28;20880;-74
2021/08/01 08:59:26;;;;;;;10.43;6.45;;;;;;;21.63;86.11;100100.00;5071016;28;20032;-74
2021/08/01 09:01:52;;;;;;;11.93;6.70;;;;;;;21.54;86.46;100098.69;5054998;28;20127;-74
2021/08/01 09:04:17;;;;;;;11.23;6.75;;;;;;;21.53;85.62;100094.44;5061028;28;20115;-74
2021/08/01 09:06:44;;;;;;;15.35;6.97;;;;;;;21.53;86.14;100099.91;5053702;28;20024;-75
2021/08/01 09:09:10;;;;;;;9.23;6.40;;;;;;;21.55;86.32;100096.72;5056534;28;20109;-74
2021/08/01 09:11:36;;;;;;;10.18;6.63;;;;;;;21.49;86.98;100099.28;5060427;28;20081;-74
2021/08/01 09:14:02;;;;;;;11.50;6.50;;;;;;;21.63;86.38;100100.00;5047860;28;20048;-74
2021/08/01 09:16:49;;;;;;;14.88;6.78;;;;;;;21.72;84.55;100095.34;5066692;28;20035;-74
2021/08/01 09:19:30;;;;;;;11.23;6.20;;;;;;;21.74;84.03;100094.94;5075013;28;20365;-74
2021/08/01 09:22:10;;;;;;;11.35;6.22;;;;;;;21.76;84.82;100093.25;5066394;28;20040;-74
2021/08/01 09:24:36;;;;;;;16.40;6.28;;;;;;;21.65;85.10;100086.63;5077601;28;20037;-74
2021/08/01 09:27:03;;;;;;;8.60;5.70;;;;;;;21.64;85.91;100090.56;5088357;28;20046;-74
2021/08/01 09:29:30;;;;;;;15.07;6.07;;;;;;;21.72;85.06;100095.34;5060334;28;20550;-74
2021/08/01 09:32:00;;;;;;;14.25;6.15;;;;;;;21.64;84.78;100096.81;5083669;28;20501;-74
2021/08/01 09:34:28;;;;;;;10.60;6.25;;;;;;;21.63;84.28;100095.28;5066501;28;20028;-74
2021/08/01 09:37:03;;;;;;;13.85;5.93;;;;;;;21.55;84.31;100094.75;5068526;28;20056;-75
2021/08/01 09:39:37;;;;;;;15.43;6.43;;;;;;;21.55;86.96;100088.50;5052749;28;20138;-74
2021/08/01 09:42:03;;;;;;;14.18;6.03;;;;;;;21.50;89.09;100092.56;5069711;28;20059;-77
2021/08/01 09:44:35;;;;;;;8.93;6.70;;;;;;;21.53;91.46;100086.22;5052215;28;20039;-74
2021/08/01 09:47:00;;;;;;;8.85;6.13;;;;;;;21.69;90.83;100079.81;5070956;28;20069;-74
2021/08/01 09:49:30;;;;;;;8.10;5.80;;;;;;;21.82;89.12;100079.78;5056321;28;20097;-74
2021/08/01 09:51:59;;;;;;;8.60;5.88;;;;;;;21.95;89.15;100067.53;5072406;28;20039;-73
2021/08/01 09:54:26;;;;;;;7.25;5.25;;;;;;;22.07;88.21;100068.69;5066607;28;20157;-73
2021/08/01 09:57:00;;;;;;;7.20;5.55;;;;;;;22.07;87.57;100077.69;5063594;28;20047;-73
2021/08/01 09:59:27;;;;;;;8.13;5.35;;;;;;;22.17;88.00;100073.03;5059093;28;20106;-74
2021/08/01 10:01:55;;;;;;;5.10;4.60;;;;;;;22.53;85.64;100061.50;5058246;28;20032;-74
2021/08/01 10:04:26;;;;;;;8.00;4.68;;;;;;;22.92;84.05;100066.25;5082859;28;20024;-73
2021/08/01 10:07:06;;;;;;;8.82;4.13;;;;;;;23.19;79.91;100052.59;5071876;28;20036;-73
2021/08/01 10:09:37;;;;;;;6.60;3.70;;;;;;;23.43;77.81;100056.31;5073550;28;20047;-74
2021/08/01 10:12:03;;;;;;;4.05;3.42;;;;;;;23.36;76.99;100055.88;5049262;28;20396;-73
2021/08/01 10:14:30;;;;;;;4.15;3.50;;;;;;;23.40;76.20;100059.22;5054186;28;20079;-74
2021/08/01 10:16:57;;;;;;;4.32;3.67;;;;;;;23.54;76.67;100055.91;5068990;28;20036;-74
2021/08/01 10:19:23;;;;;;;5.15;3.80;;;;;;;23.45;77.15;100070.38;5071709;28;20044;-74
2021/08/01 10:21:51;;;;;;;4.55;4.05;;;;;;;23.40;75.21;100068.25;5039892;28;20036;-74
2021/08/01 10:24:25;;;;;;;4.95;3.70;;;;;;;23.19;74.05;100061.59;5073736;28;20040;-74
2021/08/01 10:26:54;;;;;;;6.80;4.00;;;;;;;23.15;76.43;100063.72;5069078;28;20122;-74
2021/08/01 10:29:37;;;;;;;4.85;4.13;;;;;;;22.90;76.45;100058.47;5068401;28;20028;-74
2021/08/01 10:32:11;;;;;;;5.20;3.50;;;;;;;22.90;75.03;100052.97;5052082;28;20036;-74
2021/08/01 10:34:49;;;;;;;4.82;3.83;;;;;;;22.99;75.94;100053.03;5061501;28;20036;-74
2021/08/01 10:37:30;;;;;;;5.15;4.20;;;;;;;22.91;76.29;100049.03;5047438;28;21700;-74
2021/08/01 10:39:56;;;;;;;5.03;3.70;;;;;;;23.06;77.14;100051.94;5061978;28;20579;-74
2021/08/01 10:42:27;;;;;;;4.97;4.32;;;;;;;23.14;77.56;100053.19;5058980;28;20039;-74
2021/08/01 10:44:53;;;;;;;5.72;4.45;;;;;;;23.05;77.20;100053.19;5047162;28;20032;-74
2021/08/01 10:47:19;;;;;;;6.30;4.10;;;;;;;23.00;76.50;100053.75;5047481;28;20028;-75
2021/08/01 10:49:47;;;;;;;4.20;3.80;;;;;;;22.98;76.44;100048.72;5060425;28;20040;-74
2021/08/01 10:52:18;;;;;;;6.72;4.57;;;;;;;22.97;76.03;100046.44;5046566;28;20516;-74
2021/08/01 10:54:56;;;;;;;5.25;4.05;;;;;;;23.00;76.39;100045.53;5046118;28;20155;-74
2021/08/01 10:57:23;;;;;;;7.50;4.30;;;;;;;23.19;76.88;100045.09;5049397;28;20032;-74
2021/08/01 10:59:49;;;;;;;5.82;3.90;;;;;;;23.66;76.21;100047.47;5051494;28;20036;-74
2021/08/01 11:02:22;;;;;;;6.63;4.20;;;;;;;23.90;75.69;100042.13;5061996;28;20044;-74
2021/08/01 11:04:50;;;;;;;6.18;4.32;;;;;;;24.06;73.47;100036.31;5076870;28;20389;-75
2021/08/01 11:07:28;;;;;;;6.25;4.03;;;;;;;24.28;72.30;100036.88;5058002;28;20029;-74
2021/08/01 11:10:15;;;;;;;5.95;3.70;;;;;;;24.57;71.13;100030.81;5045993;28;20055;-75
2021/08/01 11:12:42;;;;;;;5.32;3.58;;;;;;;24.81;68.42;100032.41;5050739;28;20047;-75
2021/08/01 11:15:07;;;;;;;6.82;3.60;;;;;;;24.93;69.92;100027.91;5076779;28;20028;-74
2021/08/01 11:17:51;;;;;;;3.40;2.90;;;;;;;24.77;67.77;100014.53;5052372;28;20036;-74
2021/08/01 11:20:16;;;;;;;6.05;2.92;;;;;;;24.84;65.48;100012.19;5059815;28;20118;-74
2021/08/01 11:22:42;;;;;;;3.50;3.17;;;;;;;25.19;67.26;100008.91;5079477;28;20123;-74